sensor_id;sensor_type;location;lat;lon;timestamp;pressure;altitude;pressure_sealevel;temperature;humidity
76519;BME280;67029;51.054;13.798;2023-07-30T00:01:23;99724.23;;;21.47;58.07
76519;BME280;67029;51.054;13.798;2023-07-30T00:03:53;99724.31;;;21.46;58.06
76519;BME280;67029;51.054;13.798;2023-07-30T00:06:23;99725.27;;;21.47;58.04
76519;BME280;67029;51.054;13.798;2023-07-30T00:08:53;99725.84;;;21.47;58.00
76519;BME280;67029;51.054;13.798;2023-07-30T00:11:23;99723.97;;;21.40;58.10
76519;BME280;67029;51.054;13.798;2023-07-30T00:13:53;99714.66;;;21.27;58.35
76519;BME280;67029;51.054;13.798;2023-07-30T00:16:25;99708.45;;;21.26;58.35
76519;BME280;67029;51.054;13.798;2023-07-30T00:18:54;99709.23;;;21.26;58.39
76519;BME280;67029;51.054;13.798;2023-07-30T00:21:24;99715.48;;;21.29;58.29
76519;BME280;67029;51.054;13.798;2023-07-30T00:23:54;99723.02;;;21.30;58.20
76519;BME280;67029;51.054;13.798;2023-07-30T00:26:24;99722.31;;;21.27;58.24
76519;BME280;67029;51.054;13.798;2023-07-30T00:28:54;99718.36;;;21.23;58.25
76519;BME280;67029;51.054;13.798;2023-07-30T00:31:24;99715.36;;;21.22;58.27
76519;BME280;67029;51.054;13.798;2023-07-30T00:33:54;99722.77;;;21.02;58.68
76519;BME280;67029;51.054;13.798;2023-07-30T00:36:24;99725.12;;;21.01;58.69
76519;BME280;67029;51.054;13.798;2023-07-30T00:38:54;99719.06;;;21.01;58.67
76519;BME280;67029;51.054;13.798;2023-07-30T00:41:24;99717.80;;;21.05;58.60
76519;BME280;67029;51.054;13.798;2023-07-30T00:43:54;99715.73;;;21.03;58.66
76519;BME280;67029;51.054;13.798;2023-07-30T00:46:24;99720.45;;;20.96;58.75
76519;BME280;67029;51.054;13.798;2023-07-30T00:48:55;99718.67;;;20.89;58.89
76519;BME280;67029;51.054;13.798;2023-07-30T00:51:26;99717.88;;;20.86;58.94
76519;BME280;67029;51.054;13.798;2023-07-30T00:53:55;99718.56;;;20.89;58.92
76519;BME280;67029;51.054;13.798;2023-07-30T00:56:26;99715.77;;;20.94;58.79
76519;BME280;67029;51.054;13.798;2023-07-30T00:58:56;99713.53;;;20.90;58.93
76519;BME280;67029;51.054;13.798;2023-07-30T01:01:26;99707.11;;;20.73;59.32
76519;BME280;67029;51.054;13.798;2023-07-30T01:03:56;99703.91;;;20.68;59.39
76519;BME280;67029;51.054;13.798;2023-07-30T01:06:26;99700.41;;;20.67;59.37
76519;BME280;67029;51.054;13.798;2023-07-30T01:08:56;99701.25;;;20.69;59.33
76519;BME280;67029;51.054;13.798;2023-07-30T01:11:26;99701.05;;;20.71;59.28
76519;BME280;67029;51.054;13.798;2023-07-30T01:13:57;99703.45;;;20.74;59.26
76519;BME280;67029;51.054;13.798;2023-07-30T01:16:27;99705.31;;;20.75;59.24
76519;BME280;67029;51.054;13.798;2023-07-30T01:18:57;99705.62;;;20.70;59.35
76519;BME280;67029;51.054;13.798;2023-07-30T01:21:27;99704.28;;;20.68;59.37
76519;BME280;67029;51.054;13.798;2023-07-30T01:23:57;99706.36;;;20.70;59.30
76519;BME280;67029;51.054;13.798;2023-07-30T01:26:34;99706.48;;;20.64;59.44
76519;BME280;67029;51.054;13.798;2023-07-30T01:29:00;99715.45;;;20.63;59.48
76519;BME280;67029;51.054;13.798;2023-07-30T01:31:30;99718.88;;;20.63;59.46
76519;BME280;67029;51.054;13.798;2023-07-30T01:33:59;99722.20;;;20.64;59.42
76519;BME280;67029;51.054;13.798;2023-07-30T01:36:29;99726.92;;;20.65;59.40
76519;BME280;67029;51.054;13.798;2023-07-30T01:39:00;99722.78;;;20.66;59.34
76519;BME280;67029;51.054;13.798;2023-07-30T01:41:30;99730.41;;;20.64;59.42
76519;BME280;67029;51.054;13.798;2023-07-30T01:44:01;99734.50;;;20.66;59.38
76519;BME280;67029;51.054;13.798;2023-07-30T01:46:31;99737.56;;;20.65;59.46
76519;BME280;67029;51.054;13.798;2023-07-30T01:49:01;99740.19;;;20.57;59.52
76519;BME280;67029;51.054;13.798;2023-07-30T01:51:31;99738.42;;;20.58;59.52
76519;BME280;67029;51.054;13.798;2023-07-30T01:54:01;99748.30;;;20.61;59.54
76519;BME280;67029;51.054;13.798;2023-07-30T01:56:31;99751.08;;;20.62;59.51
76519;BME280;67029;51.054;13.798;2023-07-30T01:59:01;99753.27;;;20.60;59.56
76519;BME280;67029;51.054;13.798;2023-07-30T02:01:31;99750.30;;;20.56;59.71
76519;BME280;67029;51.054;13.798;2023-07-30T02:04:01;99747.44;;;20.57;59.65
76519;BME280;67029;51.054;13.798;2023-07-30T02:06:31;99747.84;;;20.50;59.78
76519;BME280;67029;51.054;13.798;2023-07-30T02:09:01;99740.88;;;20.46;59.88
76519;BME280;67029;51.054;13.798;2023-07-30T02:11:31;99738.06;;;20.50;59.80
76519;BME280;67029;51.054;13.798;2023-07-30T02:14:01;99739.77;;;20.53;59.82
76519;BME280;67029;51.054;13.798;2023-07-30T02:16:31;99731.19;;;20.50;59.92
76519;BME280;67029;51.054;13.798;2023-07-30T02:19:03;99735.14;;;20.50;59.93
76519;BME280;67029;51.054;13.798;2023-07-30T02:21:32;99731.44;;;20.54;59.82
76519;BME280;67029;51.054;13.798;2023-07-30T02:24:02;99734.45;;;20.54;59.78
76519;BME280;67029;51.054;13.798;2023-07-30T02:26:32;99736.33;;;20.56;59.78
76519;BME280;67029;51.054;13.798;2023-07-30T02:29:02;99739.64;;;20.47;59.92
76519;BME280;67029;51.054;13.798;2023-07-30T02:31:32;99735.88;;;20.41;60.04
76519;BME280;67029;51.054;13.798;2023-07-30T02:34:02;99736.73;;;20.25;60.42
76519;BME280;67029;51.054;13.798;2023-07-30T02:36:32;99739.82;;;20.22;60.55
76519;BME280;67029;51.054;13.798;2023-07-30T02:39:02;99741.38;;;20.26;60.47
76519;BME280;67029;51.054;13.798;2023-07-30T02:41:32;99743.30;;;20.30;60.37
76519;BME280;67029;51.054;13.798;2023-07-30T02:44:02;99744.64;;;20.34;60.31
76519;BME280;67029;51.054;13.798;2023-07-30T02:46:33;99746.23;;;20.42;60.22
76519;BME280;67029;51.054;13.798;2023-07-30T02:49:03;99754.41;;;20.44;60.17
76519;BME280;67029;51.054;13.798;2023-07-30T02:51:33;99756.91;;;20.44;60.18
76519;BME280;67029;51.054;13.798;2023-07-30T02:54:07;99756.91;;;20.44;60.27
76519;BME280;67029;51.054;13.798;2023-07-30T02:56:33;99753.34;;;20.30;60.57
76519;BME280;67029;51.054;13.798;2023-07-30T02:59:03;99747.87;;;20.29;60.58
76519;BME280;67029;51.054;13.798;2023-07-30T03:01:33;99753.11;;;20.24;60.79
76519;BME280;67029;51.054;13.798;2023-07-30T03:04:04;99753.38;;;20.07;61.21
76519;BME280;67029;51.054;13.798;2023-07-30T03:06:34;99751.28;;;20.05;61.26
76519;BME280;67029;51.054;13.798;2023-07-30T03:09:04;99754.61;;;20.11;61.17
76519;BME280;67029;51.054;13.798;2023-07-30T03:11:34;99758.29;;;20.19;61.08
76519;BME280;67029;51.054;13.798;2023-07-30T03:14:04;99759.61;;;20.26;61.00
76519;BME280;67029;51.054;13.798;2023-07-30T03:16:34;99759.66;;;20.25;61.10
76519;BME280;67029;51.054;13.798;2023-07-30T03:19:04;99757.15;;;20.31;60.95
76519;BME280;67029;51.054;13.798;2023-07-30T03:21:34;99755.69;;;20.24;61.15
76519;BME280;67029;51.054;13.798;2023-07-30T03:24:04;99748.93;;;20.24;61.22
76519;BME280;67029;51.054;13.798;2023-07-30T03:26:34;99743.57;;;20.24;61.21
76519;BME280;67029;51.054;13.798;2023-07-30T03:29:04;99735.77;;;20.28;61.11
76519;BME280;67029;51.054;13.798;2023-07-30T03:31:34;99736.89;;;20.29;61.19
76519;BME280;67029;51.054;13.798;2023-07-30T03:34:04;99732.66;;;20.16;61.49
76519;BME280;67029;51.054;13.798;2023-07-30T03:36:34;99731.95;;;20.15;61.59
76519;BME280;67029;51.054;13.798;2023-07-30T03:39:04;99732.62;;;20.10;61.72
76519;BME280;67029;51.054;13.798;2023-07-30T03:41:35;99734.84;;;19.99;62.17
76519;BME280;67029;51.054;13.798;2023-07-30T03:44:04;99739.52;;;20.01;62.12
76519;BME280;67029;51.054;13.798;2023-07-30T03:46:34;99741.52;;;20.13;61.92
76519;BME280;67029;51.054;13.798;2023-07-30T03:49:04;99754.34;;;20.22;61.70
76519;BME280;67029;51.054;13.798;2023-07-30T03:51:34;99749.88;;;20.27;61.59
76519;BME280;67029;51.054;13.798;2023-07-30T03:54:05;99748.81;;;20.33;61.49
76519;BME280;67029;51.054;13.798;2023-07-30T03:56:35;99748.25;;;20.43;61.33
76519;BME280;67029;51.054;13.798;2023-07-30T03:59:07;99757.59;;;20.47;61.20
76519;BME280;67029;51.054;13.798;2023-07-30T04:01:35;99757.98;;;20.43;61.29
76519;BME280;67029;51.054;13.798;2023-07-30T04:04:05;99768.73;;;20.45;61.30
76519;BME280;67029;51.054;13.798;2023-07-30T04:06:35;99768.76;;;20.52;61.14
76519;BME280;67029;51.054;13.798;2023-07-30T04:09:05;99764.19;;;20.59;60.99
76519;BME280;67029;51.054;13.798;2023-07-30T04:11:35;99760.58;;;20.65;60.92
76519;BME280;67029;51.054;13.798;2023-07-30T04:14:05;99758.50;;;20.59;61.04
76519;BME280;67029;51.054;13.798;2023-07-30T04:16:35;99755.89;;;20.44;61.53
76519;BME280;67029;51.054;13.798;2023-07-30T04:19:06;99761.41;;;20.54;61.41
76519;BME280;67029;51.054;13.798;2023-07-30T04:21:35;99760.88;;;20.63;61.23
76519;BME280;67029;51.054;13.798;2023-07-30T04:24:05;99762.03;;;20.69;61.09
76519;BME280;67029;51.054;13.798;2023-07-30T04:26:35;99761.42;;;20.72;61.07
76519;BME280;67029;51.054;13.798;2023-07-30T04:29:05;99765.45;;;20.77;60.99
76519;BME280;67029;51.054;13.798;2023-07-30T04:31:35;99763.64;;;20.82;60.93
76519;BME280;67029;51.054;13.798;2023-07-30T04:34:06;99770.07;;;20.74;61.06
76519;BME280;67029;51.054;13.798;2023-07-30T04:36:36;99764.24;;;20.63;61.58
76519;BME280;67029;51.054;13.798;2023-07-30T04:39:06;99759.70;;;20.56;61.62
76519;BME280;67029;51.054;13.798;2023-07-30T04:41:38;99760.62;;;20.62;61.58
76519;BME280;67029;51.054;13.798;2023-07-30T04:44:06;99767.31;;;20.62;61.85
76519;BME280;67029;51.054;13.798;2023-07-30T04:46:36;99767.14;;;20.59;61.76
76519;BME280;67029;51.054;13.798;2023-07-30T04:49:06;99761.55;;;20.52;61.85
76519;BME280;67029;51.054;13.798;2023-07-30T04:51:36;99755.09;;;20.52;61.87
76519;BME280;67029;51.054;13.798;2023-07-30T04:54:06;99749.23;;;20.54;61.86
76519;BME280;67029;51.054;13.798;2023-07-30T04:56:37;99750.39;;;20.49;62.11
76519;BME280;67029;51.054;13.798;2023-07-30T04:59:06;99749.88;;;20.52;62.01
76519;BME280;67029;51.054;13.798;2023-07-30T05:01:37;99751.13;;;20.53;62.11
76519;BME280;67029;51.054;13.798;2023-07-30T05:04:07;99747.43;;;20.60;61.96
76519;BME280;67029;51.054;13.798;2023-07-30T05:06:37;99749.72;;;20.68;61.96
76519;BME280;67029;51.054;13.798;2023-07-30T05:09:07;99755.06;;;20.56;62.21
76519;BME280;67029;51.054;13.798;2023-07-30T05:11:38;99752.30;;;20.39;62.61
76519;BME280;67029;51.054;13.798;2023-07-30T05:14:07;99753.98;;;20.37;62.78
76519;BME280;67029;51.054;13.798;2023-07-30T05:16:37;99756.16;;;20.49;62.67
76519;BME280;67029;51.054;13.798;2023-07-30T05:19:07;99763.25;;;20.58;62.50
76519;BME280;67029;51.054;13.798;2023-07-30T05:21:37;99757.19;;;20.54;62.74
76519;BME280;67029;51.054;13.798;2023-07-30T05:24:07;99754.67;;;20.55;62.82
76519;BME280;67029;51.054;13.798;2023-07-30T05:26:37;99757.81;;;20.66;62.65
76519;BME280;67029;51.054;13.798;2023-07-30T05:29:07;99757.30;;;20.66;62.72
76519;BME280;67029;51.054;13.798;2023-07-30T05:31:37;99762.59;;;20.71;62.67
76519;BME280;67029;51.054;13.798;2023-07-30T05:34:07;99762.16;;;20.67;62.75
76519;BME280;67029;51.054;13.798;2023-07-30T05:36:37;99764.35;;;20.55;63.12
76519;BME280;67029;51.054;13.798;2023-07-30T05:39:07;99768.39;;;20.69;62.98
76519;BME280;67029;51.054;13.798;2023-07-30T05:41:37;99766.33;;;20.83;62.68
76519;BME280;67029;51.054;13.798;2023-07-30T05:44:07;99779.14;;;21.04;62.32
76519;BME280;67029;51.054;13.798;2023-07-30T05:46:37;99778.23;;;21.20;61.95
76519;BME280;67029;51.054;13.798;2023-07-30T05:49:07;99780.34;;;21.33;61.68
76519;BME280;67029;51.054;13.798;2023-07-30T05:51:38;99775.70;;;21.45;61.49
76519;BME280;67029;51.054;13.798;2023-07-30T05:54:08;99780.52;;;21.51;61.31
76519;BME280;67029;51.054;13.798;2023-07-30T05:56:38;99780.11;;;21.55;61.21
76519;BME280;67029;51.054;13.798;2023-07-30T05:59:08;99783.91;;;21.66;61.04
76519;BME280;67029;51.054;13.798;2023-07-30T06:01:38;99785.31;;;21.76;60.92
76519;BME280;67029;51.054;13.798;2023-07-30T06:04:08;99786.46;;;21.86;60.75
76519;BME280;67029;51.054;13.798;2023-07-30T06:06:38;99792.66;;;21.99;60.58
76519;BME280;67029;51.054;13.798;2023-07-30T06:09:08;99784.81;;;22.08;60.45
76519;BME280;67029;51.054;13.798;2023-07-30T06:11:38;99786.73;;;22.17;60.31
76519;BME280;67029;51.054;13.798;2023-07-30T06:14:08;99785.22;;;22.24;60.14
76519;BME280;67029;51.054;13.798;2023-07-30T06:16:38;99786.62;;;22.26;60.05
76519;BME280;67029;51.054;13.798;2023-07-30T06:19:08;99788.00;;;22.35;59.92
76519;BME280;67029;51.054;13.798;2023-07-30T06:21:38;99787.23;;;22.38;59.76
76519;BME280;67029;51.054;13.798;2023-07-30T06:24:08;99792.14;;;22.41;59.65
76519;BME280;67029;51.054;13.798;2023-07-30T06:26:38;99795.75;;;22.45;59.52
76519;BME280;67029;51.054;13.798;2023-07-30T06:29:08;99795.00;;;22.46;59.43
76519;BME280;67029;51.054;13.798;2023-07-30T06:31:38;99802.04;;;22.38;59.56
76519;BME280;67029;51.054;13.798;2023-07-30T06:34:08;99801.95;;;22.29;59.77
76519;BME280;67029;51.054;13.798;2023-07-30T06:36:38;99801.07;;;22.39;59.79
76519;BME280;67029;51.054;13.798;2023-07-30T06:39:08;99800.65;;;22.47;59.71
76519;BME280;67029;51.054;13.798;2023-07-30T06:41:38;99800.91;;;22.58;59.51
76519;BME280;67029;51.054;13.798;2023-07-30T06:44:08;99804.58;;;22.45;59.66
76519;BME280;67029;51.054;13.798;2023-07-30T06:46:38;99810.92;;;22.42;59.71
76519;BME280;67029;51.054;13.798;2023-07-30T06:49:08;99812.02;;;22.47;59.67
76519;BME280;67029;51.054;13.798;2023-07-30T06:51:38;99812.50;;;22.62;59.54
76519;BME280;67029;51.054;13.798;2023-07-30T06:54:08;99810.91;;;22.72;59.31
76519;BME280;67029;51.054;13.798;2023-07-30T06:56:38;99812.55;;;22.85;59.23
76519;BME280;67029;51.054;13.798;2023-07-30T06:59:08;99814.07;;;23.05;58.99
76519;BME280;67029;51.054;13.798;2023-07-30T07:01:38;99820.21;;;23.21;58.78
76519;BME280;67029;51.054;13.798;2023-07-30T07:04:08;99815.41;;;23.35;58.59
76519;BME280;67029;51.054;13.798;2023-07-30T07:06:38;99816.61;;;23.47;58.37
76519;BME280;67029;51.054;13.798;2023-07-30T07:09:08;99813.02;;;23.57;58.30
76519;BME280;67029;51.054;13.798;2023-07-30T07:11:38;99813.62;;;23.66;58.09
76519;BME280;67029;51.054;13.798;2023-07-30T07:14:11;99820.98;;;23.77;58.00
76519;BME280;67029;51.054;13.798;2023-07-30T07:16:39;99822.39;;;23.87;57.85
76519;BME280;67029;51.054;13.798;2023-07-30T07:19:09;99822.89;;;24.00;57.70
76519;BME280;67029;51.054;13.798;2023-07-30T07:21:40;99821.56;;;24.08;57.51
76519;BME280;67029;51.054;13.798;2023-07-30T07:24:10;99822.73;;;24.12;57.41
76519;BME280;67029;51.054;13.798;2023-07-30T07:26:39;99822.84;;;24.10;57.34
76519;BME280;67029;51.054;13.798;2023-07-30T07:29:09;99820.67;;;24.12;57.39
76519;BME280;67029;51.054;13.798;2023-07-30T07:31:40;99825.90;;;24.29;57.21
76519;BME280;67029;51.054;13.798;2023-07-30T07:34:10;99825.67;;;24.48;57.01
76519;BME280;67029;51.054;13.798;2023-07-30T07:36:40;99829.62;;;24.67;56.80
76519;BME280;67029;51.054;13.798;2023-07-30T07:39:10;99830.28;;;24.86;56.63
76519;BME280;67029;51.054;13.798;2023-07-30T07:41:40;99828.68;;;25.07;56.50
76519;BME280;67029;51.054;13.798;2023-07-30T07:44:10;99829.36;;;25.29;56.32
76519;BME280;67029;51.054;13.798;2023-07-30T07:46:40;99833.06;;;25.48;56.08
76519;BME280;67029;51.054;13.798;2023-07-30T07:49:10;99836.50;;;25.69;55.84
76519;BME280;67029;51.054;13.798;2023-07-30T07:51:40;99837.41;;;25.86;55.60
76519;BME280;67029;51.054;13.798;2023-07-30T07:54:10;99836.00;;;26.00;55.36
76519;BME280;67029;51.054;13.798;2023-07-30T07:56:40;99836.37;;;26.17;55.09
76519;BME280;67029;51.054;13.798;2023-07-30T07:59:10;99829.71;;;26.35;54.82
76519;BME280;67029;51.054;13.798;2023-07-30T08:01:40;99825.95;;;26.51;54.67
76519;BME280;67029;51.054;13.798;2023-07-30T08:04:10;99819.30;;;26.65;54.51
76519;BME280;67029;51.054;13.798;2023-07-30T08:06:40;99823.85;;;26.83;54.26
76519;BME280;67029;51.054;13.798;2023-07-30T08:09:10;99817.16;;;27.06;53.85
76519;BME280;67029;51.054;13.798;2023-07-30T08:11:40;99813.02;;;27.24;53.60
76519;BME280;67029;51.054;13.798;2023-07-30T08:14:10;99813.34;;;27.44;53.34
76519;BME280;67029;51.054;13.798;2023-07-30T08:16:40;99812.48;;;27.65;53.04
76519;BME280;67029;51.054;13.798;2023-07-30T08:19:10;99810.68;;;27.90;52.67
76519;BME280;67029;51.054;13.798;2023-07-30T08:21:40;99810.33;;;28.15;52.40
76519;BME280;67029;51.054;13.798;2023-07-30T08:24:10;99811.10;;;28.39;51.86
76519;BME280;67029;51.054;13.798;2023-07-30T08:26:40;99807.83;;;28.65;51.50
76519;BME280;67029;51.054;13.798;2023-07-30T08:29:10;99807.30;;;28.92;51.17
76519;BME280;67029;51.054;13.798;2023-07-30T08:31:41;99800.34;;;29.19;50.47
76519;BME280;67029;51.054;13.798;2023-07-30T08:34:11;99807.11;;;29.35;49.77
76519;BME280;67029;51.054;13.798;2023-07-30T08:36:41;99808.94;;;29.52;49.57
76519;BME280;67029;51.054;13.798;2023-07-30T08:39:11;99810.98;;;29.62;47.87
76519;BME280;67029;51.054;13.798;2023-07-30T08:41:41;99808.75;;;29.74;48.26
76519;BME280;67029;51.054;13.798;2023-07-30T08:44:12;99805.97;;;29.89;48.23
76519;BME280;67029;51.054;13.798;2023-07-30T08:46:42;99808.19;;;30.01;47.80
76519;BME280;67029;51.054;13.798;2023-07-30T08:49:12;99809.37;;;30.04;47.22
76519;BME280;67029;51.054;13.798;2023-07-30T08:51:42;99804.48;;;29.97;46.72
76519;BME280;67029;51.054;13.798;2023-07-30T08:54:14;99808.12;;;30.11;45.92
76519;BME280;67029;51.054;13.798;2023-07-30T08:56:43;99804.30;;;30.08;45.10
76519;BME280;67029;51.054;13.798;2023-07-30T08:59:13;99802.30;;;29.94;45.11
76519;BME280;67029;51.054;13.798;2023-07-30T09:01:44;99800.16;;;30.12;45.36
76519;BME280;67029;51.054;13.798;2023-07-30T09:04:16;99803.94;;;30.24;44.67
76519;BME280;67029;51.054;13.798;2023-07-30T09:06:44;99800.23;;;30.46;44.60
76519;BME280;67029;51.054;13.798;2023-07-30T09:09:14;99801.94;;;30.62;44.31
76519;BME280;67029;51.054;13.798;2023-07-30T09:11:51;99796.88;;;30.91;43.44
76519;BME280;67029;51.054;13.798;2023-07-30T09:14:19;99793.75;;;31.17;43.12
76519;BME280;67029;51.054;13.798;2023-07-30T09:16:45;99793.14;;;31.37;42.11
76519;BME280;67029;51.054;13.798;2023-07-30T09:19:18;99793.11;;;31.52;42.85
76519;BME280;67029;51.054;13.798;2023-07-30T09:21:45;99793.42;;;31.69;42.74
76519;BME280;67029;51.054;13.798;2023-07-30T09:24:21;99791.06;;;31.82;41.99
76519;BME280;67029;51.054;13.798;2023-07-30T09:26:46;99792.94;;;31.86;41.95
76519;BME280;67029;51.054;13.798;2023-07-30T09:29:16;99797.38;;;31.94;42.08
76519;BME280;67029;51.054;13.798;2023-07-30T09:31:52;99796.83;;;32.01;41.94
76519;BME280;67029;51.054;13.798;2023-07-30T09:34:17;99798.70;;;31.93;41.10
76519;BME280;67029;51.054;13.798;2023-07-30T09:36:50;99801.45;;;31.90;41.68
76519;BME280;67029;51.054;13.798;2023-07-30T09:39:23;99801.72;;;31.93;41.43
76519;BME280;67029;51.054;13.798;2023-07-30T09:41:50;99800.21;;;31.88;41.15
76519;BME280;67029;51.054;13.798;2023-07-30T09:44:20;99802.23;;;31.77;40.83
76519;BME280;67029;51.054;13.798;2023-07-30T09:46:50;99801.34;;;31.74;40.80
76519;BME280;67029;51.054;13.798;2023-07-30T09:49:20;99800.19;;;31.57;40.83
76519;BME280;67029;51.054;13.798;2023-07-30T09:51:51;99805.89;;;31.58;40.60
76519;BME280;67029;51.054;13.798;2023-07-30T09:54:20;99802.90;;;31.54;40.08
76519;BME280;67029;51.054;13.798;2023-07-30T09:56:50;99801.36;;;31.45;40.47
76519;BME280;67029;51.054;13.798;2023-07-30T09:59:20;99800.55;;;31.36;40.36
76519;BME280;67029;51.054;13.798;2023-07-30T10:01:52;99803.41;;;31.38;40.73
76519;BME280;67029;51.054;13.798;2023-07-30T10:04:22;99807.25;;;31.50;40.57
76519;BME280;67029;51.054;13.798;2023-07-30T10:07:01;99802.19;;;31.45;40.67
76519;BME280;67029;51.054;13.798;2023-07-30T10:09:25;99803.25;;;31.54;40.83
76519;BME280;67029;51.054;13.798;2023-07-30T10:11:54;99804.62;;;31.47;40.07
76519;BME280;67029;51.054;13.798;2023-07-30T10:14:25;99801.16;;;31.33;40.27
76519;BME280;67029;51.054;13.798;2023-07-30T10:16:57;99804.09;;;31.34;40.13
76519;BME280;67029;51.054;13.798;2023-07-30T10:19:27;99800.53;;;31.38;40.32
76519;BME280;67029;51.054;13.798;2023-07-30T10:22:22;99800.75;;;31.33;40.01
76519;BME280;67029;51.054;13.798;2023-07-30T10:24:27;99807.30;;;31.29;39.85
76519;BME280;67029;51.054;13.798;2023-07-30T10:27:05;99806.45;;;31.18;39.35
76519;BME280;67029;51.054;13.798;2023-07-30T10:29:27;99806.55;;;31.03;39.68
76519;BME280;67029;51.054;13.798;2023-07-30T10:31:57;99807.25;;;30.98;39.99
76519;BME280;67029;51.054;13.798;2023-07-30T10:34:50;99800.41;;;30.92;40.10
76519;BME280;67029;51.054;13.798;2023-07-30T10:36:59;99801.97;;;30.90;40.24
76519;BME280;67029;51.054;13.798;2023-07-30T10:39:29;99801.61;;;30.80;40.44
76519;BME280;67029;51.054;13.798;2023-07-30T10:42:00;99796.90;;;30.80;40.52
76519;BME280;67029;51.054;13.798;2023-07-30T10:44:34;99794.09;;;30.73;40.38
76519;BME280;67029;51.054;13.798;2023-07-30T10:47:01;99798.89;;;30.66;40.49
76519;BME280;67029;51.054;13.798;2023-07-30T10:49:35;99800.44;;;30.65;40.63
76519;BME280;67029;51.054;13.798;2023-07-30T10:52:00;99800.78;;;30.53;40.38
76519;BME280;67029;51.054;13.798;2023-07-30T10:54:34;99793.74;;;30.62;40.30
76519;BME280;67029;51.054;13.798;2023-07-30T10:57:02;99794.45;;;30.72;40.51
76519;BME280;67029;51.054;13.798;2023-07-30T10:59:35;99790.06;;;30.98;40.48
76519;BME280;67029;51.054;13.798;2023-07-30T11:02:03;99791.01;;;31.27;40.27
76519;BME280;67029;51.054;13.798;2023-07-30T11:04:34;99799.95;;;31.55;39.95
76519;BME280;67029;51.054;13.798;2023-07-30T11:07:03;99792.67;;;31.78;39.51
76519;BME280;67029;51.054;13.798;2023-07-30T11:09:34;99795.08;;;32.03;39.24
76519;BME280;67029;51.054;13.798;2023-07-30T11:12:04;99786.94;;;32.43;39.14
76519;BME280;67029;51.054;13.798;2023-07-30T11:14:34;99792.99;;;32.76;38.51
76519;BME280;67029;51.054;13.798;2023-07-30T11:17:04;99781.21;;;33.15;38.06
76519;BME280;67029;51.054;13.798;2023-07-30T11:19:34;99780.80;;;33.40;36.52
76519;BME280;67029;51.054;13.798;2023-07-30T11:22:04;99778.31;;;33.47;35.91
76519;BME280;67029;51.054;13.798;2023-07-30T11:24:37;99772.39;;;33.62;35.83
76519;BME280;67029;51.054;13.798;2023-07-30T11:27:05;99770.60;;;33.79;36.06
76519;BME280;67029;51.054;13.798;2023-07-30T11:29:35;99756.93;;;33.84;34.90
76519;BME280;67029;51.054;13.798;2023-07-30T11:32:06;99758.84;;;33.76;34.85
76519;BME280;67029;51.054;13.798;2023-07-30T11:34:35;99758.22;;;33.94;34.82
76519;BME280;67029;51.054;13.798;2023-07-30T11:37:06;99753.34;;;34.16;35.16
76519;BME280;67029;51.054;13.798;2023-07-30T11:39:36;99755.53;;;34.40;34.83
76519;BME280;67029;51.054;13.798;2023-07-30T11:42:06;99753.64;;;34.59;34.22
76519;BME280;67029;51.054;13.798;2023-07-30T11:44:38;99752.44;;;34.82;33.01
76519;BME280;67029;51.054;13.798;2023-07-30T11:47:07;99752.27;;;34.93;33.47
76519;BME280;67029;51.054;13.798;2023-07-30T11:49:37;99750.34;;;35.11;33.05
76519;BME280;67029;51.054;13.798;2023-07-30T11:52:10;99750.98;;;35.38;33.06
76519;BME280;67029;51.054;13.798;2023-07-30T11:54:38;99751.38;;;35.61;31.51
76519;BME280;67029;51.054;13.798;2023-07-30T11:57:08;99755.08;;;35.52;29.01
76519;BME280;67029;51.054;13.798;2023-07-30T11:59:38;99755.46;;;35.36;29.46
76519;BME280;67029;51.054;13.798;2023-07-30T12:02:09;99750.05;;;35.51;30.68
76519;BME280;67029;51.054;13.798;2023-07-30T12:04:44;99737.00;;;35.71;30.33
76519;BME280;67029;51.054;13.798;2023-07-30T12:07:10;99744.94;;;35.97;30.35
76519;BME280;67029;51.054;13.798;2023-07-30T12:09:40;99735.64;;;36.07;29.88
76519;BME280;67029;51.054;13.798;2023-07-30T12:12:10;99728.57;;;36.24;30.06
76519;BME280;67029;51.054;13.798;2023-07-30T12:14:53;99723.03;;;36.46;29.61
76519;BME280;67029;51.054;13.798;2023-07-30T12:17:10;99723.30;;;36.47;29.51
76519;BME280;67029;51.054;13.798;2023-07-30T12:19:41;99716.33;;;36.33;28.38
76519;BME280;67029;51.054;13.798;2023-07-30T12:22:11;99718.36;;;36.54;28.58
76519;BME280;67029;51.054;13.798;2023-07-30T12:24:41;99713.12;;;36.58;28.10
76519;BME280;67029;51.054;13.798;2023-07-30T12:27:11;99710.38;;;36.80;28.27
76519;BME280;67029;51.054;13.798;2023-07-30T12:29:41;99708.93;;;36.94;27.84
76519;BME280;67029;51.054;13.798;2023-07-30T12:32:11;99712.62;;;37.18;27.97
76519;BME280;67029;51.054;13.798;2023-07-30T12:34:41;99705.79;;;37.43;28.13
76519;BME280;67029;51.054;13.798;2023-07-30T12:37:11;99703.30;;;37.65;27.54
76519;BME280;67029;51.054;13.798;2023-07-30T12:39:41;99703.08;;;37.63;27.39
76519;BME280;67029;51.054;13.798;2023-07-30T12:42:11;99699.61;;;37.67;27.01
76519;BME280;67029;51.054;13.798;2023-07-30T12:44:41;99698.55;;;37.59;27.05
76519;BME280;67029;51.054;13.798;2023-07-30T12:47:11;99697.59;;;37.57;27.13
76519;BME280;67029;51.054;13.798;2023-07-30T12:49:41;99698.58;;;37.66;26.72
76519;BME280;67029;51.054;13.798;2023-07-30T12:52:11;99706.25;;;37.69;27.15
76519;BME280;67029;51.054;13.798;2023-07-30T12:54:41;99703.52;;;37.69;26.71
76519;BME280;67029;51.054;13.798;2023-07-30T12:57:11;99702.23;;;37.58;26.84
76519;BME280;67029;51.054;13.798;2023-07-30T12:59:44;99705.28;;;37.34;26.99
76519;BME280;67029;51.054;13.798;2023-07-30T13:02:12;99706.34;;;36.97;26.07
76519;BME280;67029;51.054;13.798;2023-07-30T13:04:42;99702.45;;;36.77;26.63